sensor_id;sensor_type;location;lat;lon;timestamp;pressure;altitude;pressure_sealevel;temperature;humidity
59417;BME280;45222;52.458;20.914;2023-08-24T00:03:05;100878.94;;;16.84;70.80
59417;BME280;45222;52.458;20.914;2023-08-24T00:06:52;100878.86;;;16.82;70.88
59417;BME280;45222;52.458;20.914;2023-08-24T00:10:39;100880.47;;;16.77;71.03
59417;BME280;45222;52.458;20.914;2023-08-24T00:14:25;100884.39;;;16.72;70.86
59417;BME280;45222;52.458;20.914;2023-08-24T00:18:11;100885.21;;;16.65;71.10
59417;BME280;45222;52.458;20.914;2023-08-24T00:21:58;100880.88;;;16.57;71.39
59417;BME280;45222;52.458;20.914;2023-08-24T00:25:44;100878.94;;;16.48;71.40
59417;BME280;45222;52.458;20.914;2023-08-24T00:29:30;100879.12;;;16.37;71.68
59417;BME280;45222;52.458;20.914;2023-08-24T00:33:17;100874.89;;;16.27;71.72
59417;BME280;45222;52.458;20.914;2023-08-24T00:37:04;100875.23;;;16.19;72.06
59417;BME280;45222;52.458;20.914;2023-08-24T00:40:50;100872.01;;;16.10;72.11
59417;BME280;45222;52.458;20.914;2023-08-24T00:44:38;100868.13;;;16.03;71.89
59417;BME280;45222;52.458;20.914;2023-08-24T00:48:25;100869.62;;;16.00;71.89
59417;BME280;45222;52.458;20.914;2023-08-24T00:52:13;100870.06;;;15.99;71.98
59417;BME280;45222;52.458;20.914;2023-08-24T00:56:03;100871.42;;;16.00;72.14
59417;BME280;45222;52.458;20.914;2023-08-24T00:59:52;100866.84;;;16.04;72.05
59417;BME280;45222;52.458;20.914;2023-08-24T01:03:38;100868.98;;;16.10;72.04
59417;BME280;45222;52.458;20.914;2023-08-24T01:07:25;100870.37;;;16.16;72.29
59417;BME280;45222;52.458;20.914;2023-08-24T01:11:13;100872.91;;;16.22;72.32
59417;BME280;45222;52.458;20.914;2023-08-24T01:15:03;100873.31;;;16.24;72.27
59417;BME280;45222;52.458;20.914;2023-08-24T01:18:50;100871.96;;;16.22;72.56
59417;BME280;45222;52.458;20.914;2023-08-24T01:22:43;100871.45;;;16.19;72.51
59417;BME280;45222;52.458;20.914;2023-08-24T01:26:30;100872.01;;;16.16;72.46
59417;BME280;45222;52.458;20.914;2023-08-24T01:30:17;100871.23;;;16.09;72.63
59417;BME280;45222;52.458;20.914;2023-08-24T01:34:03;100874.73;;;15.98;72.80
59417;BME280;45222;52.458;20.914;2023-08-24T01:37:50;100873.64;;;15.90;72.83
59417;BME280;45222;52.458;20.914;2023-08-24T01:41:36;100871.35;;;15.80;73.03
59417;BME280;45222;52.458;20.914;2023-08-24T01:45:25;100864.21;;;15.71;73.28
59417;BME280;45222;52.458;20.914;2023-08-24T01:49:14;100861.70;;;15.63;73.30
59417;BME280;45222;52.458;20.914;2023-08-24T01:53:00;100861.08;;;15.54;73.38
59417;BME280;45222;52.458;20.914;2023-08-24T01:56:47;100861.30;;;15.51;73.30
59417;BME280;45222;52.458;20.914;2023-08-24T02:00:33;100859.42;;;15.50;73.31
59417;BME280;45222;52.458;20.914;2023-08-24T02:04:19;100857.39;;;15.51;73.66
59417;BME280;45222;52.458;20.914;2023-08-24T02:08:06;100858.71;;;15.53;73.77
59417;BME280;45222;52.458;20.914;2023-08-24T02:11:52;100857.52;;;15.58;73.69
59417;BME280;45222;52.458;20.914;2023-08-24T02:15:38;100854.79;;;15.64;73.72
59417;BME280;45222;52.458;20.914;2023-08-24T02:19:25;100849.56;;;15.67;74.13
59417;BME280;45222;52.458;20.914;2023-08-24T02:23:11;100849.80;;;15.69;74.17
59417;BME280;45222;52.458;20.914;2023-08-24T02:26:57;100848.58;;;15.72;74.30
59417;BME280;45222;52.458;20.914;2023-08-24T02:30:44;100856.62;;;15.72;74.00
59417;BME280;45222;52.458;20.914;2023-08-24T02:34:30;100854.95;;;15.67;74.35
59417;BME280;45222;52.458;20.914;2023-08-24T02:38:16;100858.66;;;15.57;74.70
59417;BME280;45222;52.458;20.914;2023-08-24T02:42:03;100857.19;;;15.51;74.89
59417;BME280;45222;52.458;20.914;2023-08-24T02:45:49;100851.85;;;15.45;74.91
59417;BME280;45222;52.458;20.914;2023-08-24T02:49:35;100848.83;;;15.38;75.11
59417;BME280;45222;52.458;20.914;2023-08-24T02:53:22;100853.25;;;15.30;75.36
59417;BME280;45222;52.458;20.914;2023-08-24T02:57:08;100846.98;;;15.24;75.28
59417;BME280;45222;52.458;20.914;2023-08-24T03:00:55;100851.31;;;15.21;75.11
59417;BME280;45222;52.458;20.914;2023-08-24T03:04:42;100853.42;;;15.19;75.02
59417;BME280;45222;52.458;20.914;2023-08-24T03:08:30;100851.27;;;15.19;75.00
59417;BME280;45222;52.458;20.914;2023-08-24T03:12:16;100849.41;;;15.23;75.07
59417;BME280;45222;52.458;20.914;2023-08-24T03:16:04;100846.53;;;15.26;75.14
59417;BME280;45222;52.458;20.914;2023-08-24T03:19:51;100843.72;;;15.28;75.00
59417;BME280;45222;52.458;20.914;2023-08-24T03:23:37;100842.72;;;15.33;75.24
59417;BME280;45222;52.458;20.914;2023-08-24T03:27:24;100839.33;;;15.38;75.12
59417;BME280;45222;52.458;20.914;2023-08-24T03:31:10;100841.23;;;15.39;75.01
59417;BME280;45222;52.458;20.914;2023-08-24T03:34:59;100840.46;;;15.35;75.28
59417;BME280;45222;52.458;20.914;2023-08-24T03:38:47;100845.38;;;15.27;75.44
59417;BME280;45222;52.458;20.914;2023-08-24T03:42:33;100847.30;;;15.22;75.23
59417;BME280;45222;52.458;20.914;2023-08-24T03:46:19;100850.73;;;15.16;75.33
59417;BME280;45222;52.458;20.914;2023-08-24T03:50:06;100851.02;;;15.08;75.56
59417;BME280;45222;52.458;20.914;2023-08-24T03:53:53;100850.79;;;14.99;75.86
59417;BME280;45222;52.458;20.914;2023-08-24T03:57:39;100857.42;;;14.93;75.90
59417;BME280;45222;52.458;20.914;2023-08-24T04:01:25;100865.13;;;14.84;75.95
59417;BME280;45222;52.458;20.914;2023-08-24T04:05:12;100865.02;;;14.73;76.22
59417;BME280;45222;52.458;20.914;2023-08-24T04:08:58;100863.55;;;14.64;76.74
59417;BME280;45222;52.458;20.914;2023-08-24T04:12:44;100863.16;;;14.61;77.15
59417;BME280;45222;52.458;20.914;2023-08-24T04:16:31;100862.39;;;14.69;76.91
59417;BME280;45222;52.458;20.914;2023-08-24T04:20:17;100859.42;;;14.81;76.88
59417;BME280;45222;52.458;20.914;2023-08-24T04:24:03;100860.52;;;14.93;77.05
59417;BME280;45222;52.458;20.914;2023-08-24T04:27:50;100859.74;;;15.05;76.80
59417;BME280;45222;52.458;20.914;2023-08-24T04:31:37;100856.78;;;15.19;76.94
59417;BME280;45222;52.458;20.914;2023-08-24T04:35:25;100854.18;;;15.27;76.89
59417;BME280;45222;52.458;20.914;2023-08-24T04:39:12;100853.02;;;15.32;76.93
59417;BME280;45222;52.458;20.914;2023-08-24T04:42:58;100852.30;;;15.34;76.93
59417;BME280;45222;52.458;20.914;2023-08-24T04:46:44;100851.39;;;15.37;76.60
59417;BME280;45222;52.458;20.914;2023-08-24T04:50:30;100848.00;;;15.43;76.63
59417;BME280;45222;52.458;20.914;2023-08-24T04:54:17;100847.14;;;15.48;76.68
59417;BME280;45222;52.458;20.914;2023-08-24T04:58:03;100854.34;;;15.51;76.56
59417;BME280;45222;52.458;20.914;2023-08-24T05:01:50;100850.50;;;15.55;76.82
59417;BME280;45222;52.458;20.914;2023-08-24T05:05:36;100851.84;;;15.62;77.11
59417;BME280;45222;52.458;20.914;2023-08-24T05:09:23;100852.45;;;15.73;77.24
59417;BME280;45222;52.458;20.914;2023-08-24T05:13:09;100858.69;;;15.85;76.82
59417;BME280;45222;52.458;20.914;2023-08-24T05:16:55;100857.36;;;16.04;76.32
59417;BME280;45222;52.458;20.914;2023-08-24T05:20:41;100862.15;;;16.27;76.21
59417;BME280;45222;52.458;20.914;2023-08-24T05:24:28;100864.06;;;16.53;75.97
59417;BME280;45222;52.458;20.914;2023-08-24T05:28:14;100863.74;;;16.77;75.12
59417;BME280;45222;52.458;20.914;2023-08-24T05:32:01;100860.17;;;17.01;74.76
59417;BME280;45222;52.458;20.914;2023-08-24T05:35:48;100859.88;;;17.24;74.56
59417;BME280;45222;52.458;20.914;2023-08-24T05:39:35;100861.75;;;17.47;73.93
59417;BME280;45222;52.458;20.914;2023-08-24T05:43:21;100868.58;;;17.73;73.61
59417;BME280;45222;52.458;20.914;2023-08-24T05:47:07;100871.38;;;17.97;73.34
59417;BME280;45222;52.458;20.914;2023-08-24T05:50:54;100866.85;;;18.20;72.97
59417;BME280;45222;52.458;20.914;2023-08-24T05:54:40;100863.55;;;18.41;71.95
59417;BME280;45222;52.458;20.914;2023-08-24T05:58:26;100863.68;;;18.59;71.32
59417;BME280;45222;52.458;20.914;2023-08-24T06:02:12;100855.65;;;18.75;70.84
59417;BME280;45222;52.458;20.914;2023-08-24T06:06:04;100863.23;;;18.89;70.27
59417;BME280;45222;52.458;20.914;2023-08-24T06:09:55;100858.00;;;18.98;69.58
59417;BME280;45222;52.458;20.914;2023-08-24T06:13:42;100852.73;;;19.11;69.43
59417;BME280;45222;52.458;20.914;2023-08-24T06:17:28;100853.63;;;19.26;69.03
59417;BME280;45222;52.458;20.914;2023-08-24T06:21:14;100854.31;;;19.42;68.75
59417;BME280;45222;52.458;20.914;2023-08-24T06:25:00;100850.86;;;19.61;67.91
59417;BME280;45222;52.458;20.914;2023-08-24T06:28:48;100848.81;;;19.82;67.85
59417;BME280;45222;52.458;20.914;2023-08-24T06:32:34;100848.81;;;20.06;67.50
59417;BME280;45222;52.458;20.914;2023-08-24T06:36:22;100846.45;;;20.28;66.81
59417;BME280;45222;52.458;20.914;2023-08-24T06:40:08;100845.71;;;20.46;65.98
59417;BME280;45222;52.458;20.914;2023-08-24T06:43:55;100846.77;;;20.63;64.80
59417;BME280;45222;52.458;20.914;2023-08-24T06:47:41;100849.50;;;20.83;64.67
59417;BME280;45222;52.458;20.914;2023-08-24T06:51:28;100849.23;;;21.00;63.83
59417;BME280;45222;52.458;20.914;2023-08-24T06:55:14;100846.61;;;21.17;63.12
59417;BME280;45222;52.458;20.914;2023-08-24T06:59:00;100846.70;;;21.27;63.12
59417;BME280;45222;52.458;20.914;2023-08-24T07:02:47;100850.03;;;21.39;62.73
59417;BME280;45222;52.458;20.914;2023-08-24T07:06:34;100850.77;;;21.53;62.01
59417;BME280;45222;52.458;20.914;2023-08-24T07:10:20;100852.56;;;21.68;61.60
59417;BME280;45222;52.458;20.914;2023-08-24T07:14:07;100852.27;;;21.92;61.66
59417;BME280;45222;52.458;20.914;2023-08-24T07:17:53;100857.10;;;22.17;60.74
59417;BME280;45222;52.458;20.914;2023-08-24T07:21:39;100861.05;;;22.30;59.45
59417;BME280;45222;52.458;20.914;2023-08-24T07:25:26;100862.11;;;22.30;58.98
59417;BME280;45222;52.458;20.914;2023-08-24T07:29:13;100861.73;;;22.29;58.55
59417;BME280;45222;52.458;20.914;2023-08-24T07:32:59;100862.51;;;22.32;58.73
59417;BME280;45222;52.458;20.914;2023-08-24T07:36:46;100859.64;;;22.40;58.15
59417;BME280;45222;52.458;20.914;2023-08-24T07:40:33;100865.22;;;22.52;57.30
59417;BME280;45222;52.458;20.914;2023-08-24T07:44:19;100860.73;;;22.62;57.48
59417;BME280;45222;52.458;20.914;2023-08-24T07:48:06;100860.17;;;22.66;57.15
59417;BME280;45222;52.458;20.914;2023-08-24T07:51:52;100856.60;;;22.81;56.84
59417;BME280;45222;52.458;20.914;2023-08-24T07:55:39;100853.15;;;23.03;56.39
59417;BME280;45222;52.458;20.914;2023-08-24T07:59:25;100850.55;;;23.21;56.18
59417;BME280;45222;52.458;20.914;2023-08-24T08:03:11;100851.04;;;23.43;55.03
59417;BME280;45222;52.458;20.914;2023-08-24T08:06:58;100847.60;;;23.62;54.66
59417;BME280;45222;52.458;20.914;2023-08-24T08:10:44;100842.02;;;23.78;53.97
59417;BME280;45222;52.458;20.914;2023-08-24T08:14:31;100842.70;;;24.00;54.05
59417;BME280;45222;52.458;20.914;2023-08-24T08:18:17;100844.25;;;24.23;52.89
59417;BME280;45222;52.458;20.914;2023-08-24T08:22:03;100841.48;;;24.38;52.23
59417;BME280;45222;52.458;20.914;2023-08-24T08:25:50;100847.09;;;24.53;51.89
59417;BME280;45222;52.458;20.914;2023-08-24T08:29:36;100850.42;;;24.65;52.07
59417;BME280;45222;52.458;20.914;2023-08-24T08:33:22;100852.63;;;24.69;51.42
59417;BME280;45222;52.458;20.914;2023-08-24T08:37:13;100856.15;;;24.72;51.63
59417;BME280;45222;52.458;20.914;2023-08-24T08:41:03;100854.42;;;24.76;51.26
59417;BME280;45222;52.458;20.914;2023-08-24T08:44:49;100855.69;;;24.76;51.37
59417;BME280;45222;52.458;20.914;2023-08-24T08:48:39;100852.92;;;24.75;51.28
59417;BME280;45222;52.458;20.914;2023-08-24T08:52:26;100848.58;;;24.75;51.05
59417;BME280;45222;52.458;20.914;2023-08-24T08:56:12;100850.54;;;24.75;50.86
59417;BME280;45222;52.458;20.914;2023-08-24T08:59:59;100855.48;;;24.88;51.21
59417;BME280;45222;52.458;20.914;2023-08-24T09:03:45;100854.16;;;25.02;50.42
59417;BME280;45222;52.458;20.914;2023-08-24T09:07:32;100847.64;;;25.15;50.16
59417;BME280;45222;52.458;20.914;2023-08-24T09:11:20;100844.28;;;25.28;50.44
59417;BME280;45222;52.458;20.914;2023-08-24T09:15:12;100843.16;;;25.40;50.14
59417;BME280;45222;52.458;20.914;2023-08-24T09:19:05;100836.61;;;25.67;49.28
59417;BME280;45222;52.458;20.914;2023-08-24T09:22:53;100832.32;;;25.96;48.77
59417;BME280;45222;52.458;20.914;2023-08-24T09:26:42;100835.77;;;26.22;48.45
59417;BME280;45222;52.458;20.914;2023-08-24T09:30:31;100834.33;;;26.40;47.53
59417;BME280;45222;52.458;20.914;2023-08-24T09:34:20;100827.87;;;26.51;47.51
59417;BME280;45222;52.458;20.914;2023-08-24T09:38:18;100826.59;;;26.63;47.22
59417;BME280;45222;52.458;20.914;2023-08-24T09:42:06;100830.37;;;26.87;46.68
59417;BME280;45222;52.458;20.914;2023-08-24T09:45:53;100827.40;;;27.23;46.78
59417;BME280;45222;52.458;20.914;2023-08-24T09:49:39;100831.83;;;27.41;46.36
59417;BME280;45222;52.458;20.914;2023-08-24T09:53:26;100831.65;;;27.67;46.29
59417;BME280;45222;52.458;20.914;2023-08-24T09:57:15;100827.65;;;27.80;44.98
59417;BME280;45222;52.458;20.914;2023-08-24T10:01:02;100825.23;;;27.72;44.77
59417;BME280;45222;52.458;20.914;2023-08-24T10:04:51;100821.34;;;27.69;45.03
59417;BME280;45222;52.458;20.914;2023-08-24T10:08:39;100812.60;;;27.82;44.01
59417;BME280;45222;52.458;20.914;2023-08-24T10:12:28;100815.02;;;27.83;43.94
59417;BME280;45222;52.458;20.914;2023-08-24T10:16:18;100814.85;;;27.67;44.39
59417;BME280;45222;52.458;20.914;2023-08-24T10:20:08;100815.88;;;27.47;44.35
59417;BME280;45222;52.458;20.914;2023-08-24T10:23:56;100820.55;;;27.37;45.00
59417;BME280;45222;52.458;20.914;2023-08-24T10:27:43;100820.75;;;27.09;45.17
59417;BME280;45222;52.458;20.914;2023-08-24T10:31:30;100828.92;;;26.80;46.01
59417;BME280;45222;52.458;20.914;2023-08-24T10:35:17;100827.16;;;26.54;45.68
59417;BME280;45222;52.458;20.914;2023-08-24T10:39:04;100825.02;;;26.15;46.06
59417;BME280;45222;52.458;20.914;2023-08-24T10:42:51;100823.33;;;25.91;46.49
59417;BME280;45222;52.458;20.914;2023-08-24T10:46:38;100822.14;;;25.82;47.01
59417;BME280;45222;52.458;20.914;2023-08-24T10:50:24;100816.71;;;25.87;47.15
59417;BME280;45222;52.458;20.914;2023-08-24T10:54:11;100814.00;;;25.91;46.93
59417;BME280;45222;52.458;20.914;2023-08-24T10:57:58;100810.92;;;26.03;46.72
59417;BME280;45222;52.458;20.914;2023-08-24T11:01:55;100802.30;;;26.19;46.78
59417;BME280;45222;52.458;20.914;2023-08-24T11:05:43;100807.39;;;26.45;45.95
59417;BME280;45222;52.458;20.914;2023-08-24T11:09:31;100803.02;;;26.53;44.74
59417;BME280;45222;52.458;20.914;2023-08-24T11:13:30;100798.37;;;26.79;44.08
59417;BME280;45222;52.458;20.914;2023-08-24T11:17:20;100800.33;;;26.99;43.58
59417;BME280;45222;52.458;20.914;2023-08-24T11:21:08;100794.85;;;27.20;43.47
59417;BME280;45222;52.458;20.914;2023-08-24T11:24:54;100796.27;;;27.55;42.95
59417;BME280;45222;52.458;20.914;2023-08-24T11:28:40;100789.42;;;27.91;42.91
59417;BME280;45222;52.458;20.914;2023-08-24T11:32:27;100790.85;;;28.29;42.15
59417;BME280;45222;52.458;20.914;2023-08-24T11:36:13;100785.59;;;28.59;41.51
59417;BME280;45222;52.458;20.914;2023-08-24T11:40:00;100788.28;;;28.81;40.71
59417;BME280;45222;52.458;20.914;2023-08-24T11:43:47;100788.88;;;28.83;40.03
59417;BME280;45222;52.458;20.914;2023-08-24T11:47:35;100787.22;;;28.87;40.18
59417;BME280;45222;52.458;20.914;2023-08-24T11:51:21;100776.98;;;29.05;40.28
59417;BME280;45222;52.458;20.914;2023-08-24T11:55:08;100769.99;;;29.26;39.85
59417;BME280;45222;52.458;20.914;2023-08-24T11:58:55;100764.89;;;29.44;40.00
59417;BME280;45222;52.458;20.914;2023-08-24T12:02:41;100762.02;;;29.33;38.56
59417;BME280;45222;52.458;20.914;2023-08-24T12:06:27;100765.69;;;28.88;38.51
59417;BME280;45222;52.458;20.914;2023-08-24T12:10:14;100762.33;;;28.39;39.62
59417;BME280;45222;52.458;20.914;2023-08-24T12:14:00;100759.26;;;28.20;39.79
59417;BME280;45222;52.458;20.914;2023-08-24T12:17:50;100757.03;;;28.07;40.08
59417;BME280;45222;52.458;20.914;2023-08-24T12:21:42;100750.83;;;28.14;40.00
59417;BME280;45222;52.458;20.914;2023-08-24T12:25:35;100748.86;;;28.27;39.92
59417;BME280;45222;52.458;20.914;2023-08-24T12:29:27;100746.35;;;28.58;40.04
59417;BME280;45222;52.458;20.914;2023-08-24T12:33:23;100742.43;;;28.82;39.20
59417;BME280;45222;52.458;20.914;2023-08-24T12:37:10;100737.58;;;28.84;38.69
59417;BME280;45222;52.458;20.914;2023-08-24T12:40:56;100732.55;;;28.97;39.29
59417;BME280;45222;52.458;20.914;2023-08-24T12:44:43;100734.00;;;29.18;38.65
59417;BME280;45222;52.458;20.914;2023-08-24T12:48:29;100731.02;;;29.34;38.53
59417;BME280;45222;52.458;20.914;2023-08-24T12:52:15;100728.29;;;29.29;38.37
59417;BME280;45222;52.458;20.914;2023-08-24T12:56:01;100729.02;;;29.49;38.15
59417;BME280;45222;52.458;20.914;2023-08-24T12:59:48;100729.48;;;29.51;36.99
59417;BME280;45222;52.458;20.914;2023-08-24T13:03:34;100726.20;;;29.67;37.15
59417;BME280;45222;52.458;20.914;2023-08-24T13:07:21;100718.26;;;29.86;36.65
59417;BME280;45222;52.458;20.914;2023-08-24T13:11:07;100707.79;;;30.08;36.48
59417;BME280;45222;52.458;20.914;2023-08-24T13:14:53;100698.77;;;30.22;36.12
59417;BME280;45222;52.458;20.914;2023-08-24T13:18:40;100700.30;;;30.19;35.21
59417;BME280;45222;52.458;20.914;2023-08-24T13:22:26;100700.26;;;30.00;35.50
59417;BME280;45222;52.458;20.914;2023-08-24T13:26:18;100696.85;;;29.75;35.64
59417;BME280;45222;52.458;20.914;2023-08-24T13:30:06;100697.63;;;29.25;35.33
59417;BME280;45222;52.458;20.914;2023-08-24T13:33:53;100703.18;;;29.17;35.01
59417;BME280;45222;52.458;20.914;2023-08-24T13:37:39;100696.75;;;29.20;35.67
59417;BME280;45222;52.458;20.914;2023-08-24T13:41:25;100691.89;;;29.42;35.63
59417;BME280;45222;52.458;20.914;2023-08-24T13:45:12;100685.23;;;29.64;34.32
59417;BME280;45222;52.458;20.914;2023-08-24T13:48:58;100685.97;;;29.77;33.88
59417;BME280;45222;52.458;20.914;2023-08-24T13:52:44;100676.67;;;29.89;34.15
59417;BME280;45222;52.458;20.914;2023-08-24T13:56:31;100675.39;;;30.01;33.71
59417;BME280;45222;52.458;20.914;2023-08-24T14:00:18;100669.88;;;30.22;33.45
59417;BME280;45222;52.458;20.914;2023-08-24T14:04:04;100676.27;;;30.41;33.30
59417;BME280;45222;52.458;20.914;2023-08-24T14:07:51;100672.27;;;30.37;33.06
59417;BME280;45222;52.458;20.914;2023-08-24T14:11:37;100672.95;;;30.51;33.44
59417;BME280;45222;52.458;20.914;2023-08-24T14:15:24;100679.05;;;30.50;31.61
59417;BME280;45222;52.458;20.914;2023-08-24T14:19:10;100670.10;;;30.13;31.79
59417;BME280;45222;52.458;20.914;2023-08-24T14:22:57;100669.55;;;29.66;32.78
59417;BME280;45222;52.458;20.914;2023-08-24T14:26:43;100667.98;;;29.21;33.32
59417;BME280;45222;52.458;20.914;2023-08-24T14:30:31;100675.04;;;28.99;33.50
59417;BME280;45222;52.458;20.914;2023-08-24T14:34:17;100674.33;;;29.15;33.65
59417;BME280;45222;52.458;20.914;2023-08-24T14:38:04;100679.63;;;29.29;33.22
59417;BME280;45222;52.458;20.914;2023-08-24T14:41:50;100678.39;;;29.36;32.97
59417;BME280;45222;52.458;20.914;2023-08-24T14:50:15;100667.69;;;29.85;32.65
59417;BME280;45222;52.458;20.914;2023-08-24T14:54:02;100668.30;;;30.03;32.48
59417;BME280;45222;52.458;20.914;2023-08-24T14:57:48;100665.21;;;29.95;31.92
59417;BME280;45222;52.458;20.914;2023-08-24T15:01:37;100657.55;;;29.74;32.31
59417;BME280;45222;52.458;20.914;2023-08-24T15:05:23;100658.21;;;29.49;31.94
59417;BME280;45222;52.458;20.914;2023-08-24T15:09:10;100665.73;;;29.03;32.21
59417;BME280;45222;52.458;20.914;2023-08-24T15:12:56;100666.41;;;28.62;32.87
59417;BME280;45222;52.458;20.914;2023-08-24T15:16:42;100662.15;;;28.40;33.30
59417;BME280;45222;52.458;20.914;2023-08-24T15:20:28;100657.98;;;28.41;33.97
59417;BME280;45222;52.458;20.914;2023-08-24T15:24:15;100660.38;;;28.43;33.91
59417;BME280;45222;52.458;20.914;2023-08-24T15:28:01;100664.83;;;28.22;33.49
59417;BME280;45222;52.458;20.914;2023-08-24T15:31:47;100659.79;;;27.88;34.15
59417;BME280;45222;52.458;20.914;2023-08-24T15:35:33;100662.03;;;27.66;34.68
59417;BME280;45222;52.458;20.914;2023-08-24T15:39:19;100661.75;;;27.38;34.88
59417;BME280;45222;52.458;20.914;2023-08-24T15:43:05;100655.34;;;27.21;34.88
59417;BME280;45222;52.458;20.914;2023-08-24T15:46:52;100648.21;;;27.05;35.33
59417;BME280;45222;52.458;20.914;2023-08-24T15:50:38;100648.71;;;26.97;35.69
59417;BME280;45222;52.458;20.914;2023-08-24T15:54:24;100644.64;;;26.98;36.19
59417;BME280;45222;52.458;20.914;2023-08-24T15:58:11;100636.35;;;27.00;35.89
59417;BME280;45222;52.458;20.914;2023-08-24T16:01:57;100632.20;;;26.87;35.95
59417;BME280;45222;52.458;20.914;2023-08-24T16:05:43;100637.36;;;26.71;36.06
59417;BME280;45222;52.458;20.914;2023-08-24T16:09:29;100637.48;;;26.62;36.44
59417;BME280;45222;52.458;20.914;2023-08-24T16:13:15;100640.17;;;26.58;36.60
59417;BME280;45222;52.458;20.914;2023-08-24T16:17:01;100638.16;;;26.55;36.03
59417;BME280;45222;52.458;20.914;2023-08-24T16:20:48;100636.80;;;26.49;36.01
59417;BME280;45222;52.458;20.914;2023-08-24T16:24:34;100641.25;;;26.45;35.92
59417;BME280;45222;52.458;20.914;2023-08-24T16:28:20;100634.11;;;26.38;35.90
59417;BME280;45222;52.458;20.914;2023-08-24T16:32:06;100637.86;;;26.30;36.28
59417;BME280;45222;52.458;20.914;2023-08-24T16:35:53;100628.27;;;26.20;36.42
59417;BME280;45222;52.458;20.914;2023-08-24T16:39:39;100630.01;;;26.08;36.76
59417;BME280;45222;52.458;20.914;2023-08-24T16:43:25;100641.38;;;25.94;36.97
59417;BME280;45222;52.458;20.914;2023-08-24T16:47:11;100641.12;;;25.81;37.48
59417;BME280;45222;52.458;20.914;2023-08-24T16:50:57;100634.73;;;25.75;37.47
59417;BME280;45222;52.458;20.914;2023-08-24T16:54:43;100628.29;;;25.69;38.30
59417;BME280;45222;52.458;20.914;2023-08-24T16:58:29;100617.06;;;25.61;39.72
59417;BME280;45222;52.458;20.914;2023-08-24T17:02:17;100621.05;;;25.47;40.87
59417;BME280;45222;52.458;20.914;2023-08-24T17:06:07;100624.27;;;25.30;42.00
59417;BME280;45222;52.458;20.914;2023-08-24T17:09:58;100632.74;;;25.08;41.84
59417;BME280;45222;52.458;20.914;2023-08-24T17:13:45;100635.29;;;24.85;42.32
59417;BME280;45222;52.458;20.914;2023-08-24T17:17:31;100643.23;;;24.59;43.00
59417;BME280;45222;52.458;20.914;2023-08-24T17:21:17;100648.42;;;24.35;43.51
59417;BME280;45222;52.458;20.914;2023-08-24T17:25:05;100643.42;;;24.11;44.51
59417;BME280;45222;52.458;20.914;2023-08-24T17:28:51;100642.73;;;23.85;45.35
59417;BME280;45222;52.458;20.914;2023-08-24T17:32:38;100639.84;;;23.57;46.11
59417;BME280;45222;52.458;20.914;2023-08-24T17:36:24;100633.87;;;23.27;46.50
59417;BME280;45222;52.458;20.914;2023-08-24T17:40:11;100631.31;;;22.99;46.24
59417;BME280;45222;52.458;20.914;2023-08-24T17:43:57;100627.38;;;22.70;46.70
59417;BME280;45222;52.458;20.914;2023-08-24T17:47:43;100626.83;;;22.43;47.35
59417;BME280;45222;52.458;20.914;2023-08-24T17:51:29;100627.67;;;22.19;47.78
59417;BME280;45222;52.458;20.914;2023-08-24T17:55:15;100630.38;;;21.93;47.92
59417;BME280;45222;52.458;20.914;2023-08-24T17:59:01;100635.73;;;21.72;48.44
59417;BME280;45222;52.458;20.914;2023-08-24T18:02:48;100637.15;;;21.52;48.88
59417;BME280;45222;52.458;20.914;2023-08-24T18:06:34;100647.03;;;21.29;49.50
59417;BME280;45222;52.458;20.914;2023-08-24T18:10:21;100656.17;;;21.07;50.08
59417;BME280;45222;52.458;20.914;2023-08-24T18:14:07;100662.27;;;20.89;50.31
59417;BME280;45222;52.458;20.914;2023-08-24T18:17:53;100669.11;;;20.72;51.08
59417;BME280;45222;52.458;20.914;2023-08-24T18:21:40;100679.47;;;20.55;51.76
59417;BME280;45222;52.458;20.914;2023-08-24T18:25:26;100688.79;;;20.39;52.23
59417;BME280;45222;52.458;20.914;2023-08-24T18:29:13;100690.05;;;20.24;52.80
59417;BME280;45222;52.458;20.914;2023-08-24T18:32:59;100697.02;;;20.09;53.13
59417;BME280;45222;52.458;20.914;2023-08-24T18:36:45;100695.54;;;19.94;53.47
59417;BME280;45222;52.458;20.914;2023-08-24T18:40:32;100691.63;;;19.80;53.75
59417;BME280;45222;52.458;20.914;2023-08-24T18:44:18;100694.05;;;19.66;53.89
59417;BME280;45222;52.458;20.914;2023-08-24T18:48:05;100692.96;;;19.52;54.76
59417;BME280;45222;52.458;20.914;2023-08-24T18:51:51;100689.96;;;19.38;55.24
59417;BME280;45222;52.458;20.914;2023-08-24T18:55:39;100679.02;;;19.20;55.73
59417;BME280;45222;52.458;20.914;2023-08-24T18:59:25;100678.39;;;19.05;55.90
59417;BME280;45222;52.458;20.914;2023-08-24T19:03:12;100678.79;;;18.92;56.58
59417;BME280;45222;52.458;20.914;2023-08-24T19:06:58;100682.21;;;18.81;56.51
59417;BME280;45222;52.458;20.914;2023-08-24T19:10:44;100691.44;;;18.69;57.02
59417;BME280;45222;52.458;20.914;2023-08-24T19:14:31;100695.10;;;18.49;58.30
59417;BME280;45222;52.458;20.914;2023-08-24T19:18:19;100696.36;;;18.30;58.44
59417;BME280;45222;52.458;20.914;2023-08-24T19:22:05;100697.70;;;18.17;58.37
59417;BME280;45222;52.458;20.914;2023-08-24T19:25:51;100690.33;;;18.07;59.02
59417;BME280;45222;52.458;20.914;2023-08-24T19:29:38;100686.31;;;17.96;59.61
59417;BME280;45222;52.458;20.914;2023-08-24T19:33:24;100686.38;;;17.85;59.74
59417;BME280;45222;52.458;20.914;2023-08-24T19:37:10;100679.31;;;17.76;59.62